SHMÚ vydal meteorologické výstrahy na DážďVietor na horách Zobraziť výstrahy

METAR

Letisková meteorologická správa METAR

Meteorologické informácie z ďalších profesionálnych meteorologických staníc SHMÚ zobrazené v tvare zodpovedajúcom pravidlám kódovania správ METAR sú uvedené v položke „METSYN

Informácie o správe METAR

30.05.2020 - 18:30 UTC

METAR LZIB 301830Z 35008KT 9999 FEW048 BKN085 15/04 Q1017=
METAR LZKZ 301830Z 32006KT 9999 FEW040 SCT050 BKN090 12/05 Q1014=
METAR LZPP 301830Z 35010KT CAVOK 12/08 Q1017=
METAR LZSL 301830Z 01008KT 9999 FEW060 BKN090 12/04 Q1015=
METAR LZTT 301830Z 25010KT 9999 VCSH BKN046 OVC090 09/02 Q1014=
METAR LZZI 301830Z 11003KT 9999 FEW039 SCT052 BKN070 11/07 Q1017=

30.05.2020 - 18:00 UTC

METAR LZIB 301800Z 35012KT 9999 FEW048 BKN085 16/05 Q1017 NOSIG=
METAR LZKZ 301800Z 33012KT CAVOK 12/05 Q1014=
METAR LZPP 301800Z 36011KT CAVOK 13/07 Q1017=
METAR LZSL 301800Z 01011KT 340V040 9999 FEW062 BKN095 13/04 Q1015=
METAR LZTT 301800Z 23009KT 9999 VCSH SCT040 OVC090 09/02 Q1014=
METAR LZZI 301800Z 02004KT 9999 FEW038 BKN050 BKN071 11/07 Q1017=

30.05.2020 - 18:00 UTC

METAR LZMC 301800Z 01006KT CAVOK 13/05 Q1018=
METAR LZPW 301800Z 28006KT 9999 -SHRA OVC033 10/05
Q1014=

skok na menu ↑


skok na začiatok stránky ↑